Last 24 Hour KALB Observations

Last 24 hours of surface weather observations from the Albany County Airport. Observations taken by the National Weather Service.


		
KALB 060851Z 00000KT 10SM OVC037 M01/M08 A3008 RMK AO2 SLP190 T10061078 50006=
KALB 060951Z 00000KT 10SM OVC034 M02/M07 A3009 RMK AO2 SLP192 T10171072=
KALB 061051Z 00000KT 10SM BKN039 OVC070 M02/M07 A3008 RMK AO2 SLP191 T10171067=
KALB 061151Z 00000KT 10SM SCT038 BKN075 OVC100 M02/M07 A3008 RMK AO2 SLP188
 4/011 T10171067 11006 21022 58002=
KALB 061251Z 16006KT 10SM FEW038 OVC075 M01/M07 A3005 RMK AO2 SLP180 T10111067=
KALB 061351Z 17004KT 10SM OVC070 M01/M07 A3005 RMK AO2 SLP179 T10061067=
KALB 061451Z 17005KT 10SM -SN OVC070 00/M07 A3004 RMK AO2 SNB29 SLP175 P0000
 60000 T00001067 56012=
KALB 061524Z 16009KT 1 1/2SM -SN BKN034 BKN039 OVC055 M01/M06 A3002 RMK AO2 SFC
 VIS 2 VIS 1 1/2V2 1/2 P0000 T10061061=
KALB 061524Z 16009KT 1 1/2SM -SN BKN034 BKN039 OVC055 M01/M06 A3002=
KALB 061532Z 16007KT 3/4SM R01/P6000FT -SN SCT020 BKN028 OVC037 M01/M06 A3001
 RMK AO2 SFC VIS 1 P0000 T10061056=
KALB 061532Z 16007KT 3/4SM R01/P6000FT -SN SCT020 BKN028 OVC037 M01/M06 A3001=
KALB 061551Z 17007KT 3/4SM R01/6000VP6000FT -SN VV020 M01/M05 A3000 RMK AO2 SFC
 VIS 1 SLP162 P0000 T10111050=
KALB 061651Z 14006KT 3/4SM R01/5500VP6000FT -SN OVC023 M01/M04 A2995 RMK AO2
 SFC VIS 1 PRESFR SLP145 VIS 3/4V1 1/4 P0001 T10061039=
KALB 061723Z 14006KT 1/2SM R01/3500V4500FT -SN BKN012 OVC016 M01/M03 A2993 RMK
 AO2 SFC VIS 3/4 VIS 3/4V1 1/4 P0002 T10061033=
KALB 061723Z 14006KT 1/2SM R01/3500V4500FT -SN BKN012 OVC016 M01/M03 A2993=
KALB 061723Z COR 14006KT 1/2SM R01/3500V4500FT -SN BKN012 OVC016 M01/M03 A2993
 RMK AO2 SFC VIS 3/4 P0002 T10061033=
KALB 061723Z COR 14006KT 1/2SM R01/3500V4500FT -SN BKN012 OVC016 M01/M03 A2993=
KALB 061751Z 13004KT 1/2SM R01/3500V4500FT SN VV012 M01/M03 A2991 RMK AO2
 SLP133 P0005 60006 T10061033 10000 21022 56042=
KALB 061751Z COR 13004KT 1/2SM R01/3500V4500FT SN VV012 M01/M03 A2991 RMK AO2
 SLP133 SNINCR 1/12 4/012 933016 P0005 60006 T10061033 10000 21022 56042=
KALB 061751Z 13004KT 1/2SM R01/3500V4500FT SN VV012 M01/M03 A2991 RMK AO2
 SLP133 P0005 60006 T10061033 10000 21022 56042=
KALB 061751Z COR 13004KT 1/2SM R01/3500V4500FT SN VV012 M01/M03 A2991 RMK AO2
 SLP133 SNINCR 1/12 4/012 933016 P0005 60006 T10061033 10000 21022 56042=
KALB 061808Z 00000KT 1/2SM R01/4000VP6000FT -SN BR SCT007 OVC013 M01/M03 A2991
 RMK AO2 SFC VIS 3/4 P0001 T10061028=
KALB 061808Z 00000KT 1/2SM R01/4000VP6000FT -SN BR SCT007 OVC013 M01/M03 A2991=
KALB 061836Z 17003KT 1/2SM R01/5500VP6000FT -SN BR BKN007 OVC013 00/M02 A2990
 RMK AO2 SFC VIS 1 P0002 T00001022=
KALB 061836Z 17003KT 1/2SM R01/5500VP6000FT -SN BR BKN007 OVC013 00/M02 A2990=
KALB 061851Z 16003KT 1SM R01/P6000FT -SN OVC007 01/M02 A2989 RMK AO2 SFC VIS 1
 1/4 SLP126 P0002 T00061022=
KALB 061951Z 18004KT 1 1/4SM -SN OVC007 01/M02 A2989 RMK AO2 SFC VIS 1 1/2
 SLP126 P0001 T00111017=
KALB 062051Z 24003KT 1 1/4SM -SN BR OVC006 01/M01 A2989 RMK AO2 SFC VIS 1 3/4
 SLP126 P0002 60005 T00111011 55006=
KALB 062151Z 33006KT 1 1/4SM -SN BR OVC005 00/M02 A2992 RMK AO2 SFC VIS 2 1/2
 SLP134 P0000 T00001022=
KALB 062215Z 33009KT 2SM -SN OVC006 00/M03 A2993 RMK AO2 P0000 T00001028=
KALB 062215Z 33009KT 2SM -SN OVC006 00/M03 A2993=
KALB 062251Z 33008KT 1SM R01/P6000FT -SN BKN008 BKN013 OVC020 M01/M03 A2997 RMK
 AO2 SFC VIS 1 1/2 CIG 005V010 SLP152 P0000 T10061033=
KALB 062312Z 33010KT 3SM -SN SCT009 BKN020 OVC039 M01/M03 A3000 RMK AO2 TWR VIS
 4 PRESRR P0000 T10061033=
KALB 062312Z 33010KT 3SM -SN SCT009 BKN020 OVC039 M01/M03 A3000=
KALB 062351Z 01004KT 3SM -SN SCT009 OVC015 M01/M03 A3003 RMK AO2 TWR VIS 4
 SLP171 4/012 P0000 60005 T10061033 10011 21006 53044=
KALB 070023Z 35003KT 6SM BR SCT015 SCT020 BKN050 M01/M04 A3005 RMK AO2 SNE00
 P0000 T10111039=
KALB 070023Z 35003KT 6SM BR SCT015 SCT020 BKN050 M01/M04 A3005=
KALB 070051Z VRB03KT 10SM SCT020 BKN048 BKN055 M01/M04 A3006 RMK AO2 SNE00
 SLP181 P0000 T10061039=
KALB 070151Z 30013KT 10SM FEW030 SCT035 BKN060 00/M04 A3009 RMK AO2 SLP192
 T00001044=
KALB 070218Z 30012KT 10SM BKN026 BKN034 00/M06 A3010 RMK AO2 OCNL DRSN
 T00001056=
KALB 070218Z 30012KT 10SM BKN026 BKN034 00/M06 A3010=
KALB 070241Z 31014G25KT 10SM FEW025 BKN033 M01/M07 A3011=
KALB 070241Z 31014G25KT 10SM FEW025 BKN033 M01/M07 A3011 RMK AO2 OCNL DRSN
 T10061067=
KALB 070251Z 30017G25KT 10SM FEW025 SCT033 M01/M07 A3012 RMK AO2 SLP202 FRQ
 DRSN 60000 T10061072 53031=
KALB 070351Z 31015G20KT 10SM FEW025 FEW033 M02/M08 A3016 RMK AO2 SLP217 OCNL
 DRSN T10221083=
KALB 070451Z 31012G19KT 10SM FEW025 BKN037 M03/M09 A3018 RMK AO2 SLP223 BKN V
 SCT OCNL DRSN T10281094 400111028=
KALB 070551Z 31010KT 10SM FEW035 M04/M10 A3019 RMK AO2 SLP228 4/012 60000
 T10391100 10006 21039 51025=
KALB 070651Z 34007KT 10SM FEW035 M05/M10 A3022 RMK AO2 SLP235 T10501100=
KALB 070751Z 33005KT 10SM FEW035 M06/M11 A3022 RMK AO2 SLP236 T10611106=
KALB 070851Z 00000KT 10SM SCT080 M08/M12 A3024 RMK AO2 SLP244 T10781117 51015=